createdAt,value
2019-05-06T00:00:13.978Z,8.40
2019-05-06T00:02:43.573Z,8.40
2019-05-06T00:05:15.944Z,8.50
2019-05-06T00:07:54.404Z,8.40
2019-05-06T00:10:27.520Z,8.30
2019-05-06T00:12:55.097Z,8.30
2019-05-06T00:15:24.570Z,8.40
2019-05-06T00:17:55.938Z,8.30
2019-05-06T00:20:24.309Z,8.20
2019-05-06T00:23:00.820Z,8.30
2019-05-06T00:25:36.120Z,8.30
2019-05-06T00:28:24.460Z,8.30
2019-05-06T00:31:12.942Z,8.40
2019-05-06T00:33:35.890Z,8.30
2019-05-06T00:36:04.739Z,8.30
2019-05-06T00:38:35.213Z,8.40
2019-05-06T00:41:05.194Z,8.40
2019-05-06T00:43:35.793Z,8.20
2019-05-06T00:46:04.691Z,8.40
2019-05-06T00:48:33.927Z,8.50
2019-05-06T00:51:04.482Z,8.30
2019-05-06T00:53:36.316Z,8.20
2019-05-06T00:56:04.542Z,8.30
2019-05-06T00:58:31.893Z,8.20
2019-05-06T01:01:00.028Z,8.30
2019-05-06T01:03:27.279Z,8.30
2019-05-06T01:05:54.559Z,8.30
2019-05-06T01:08:24.047Z,8.20
2019-05-06T01:10:54.241Z,8.20
2019-05-06T01:13:40.147Z,8.10
2019-05-06T01:16:08.477Z,8.00
2019-05-06T01:18:35.343Z,7.90
2019-05-06T01:21:09.036Z,8.10
2019-05-06T01:23:36.178Z,8.20
2019-05-06T01:26:04.180Z,8.20
2019-05-06T01:28:31.293Z,8.00
2019-05-06T01:31:04.261Z,8.10
2019-05-06T01:33:31.876Z,8.20
2019-05-06T01:36:04.524Z,8.20
2019-05-06T01:38:36.980Z,8.10
2019-05-06T01:41:24.378Z,8.00
2019-05-06T01:43:51.486Z,8.00
2019-05-06T01:46:18.421Z,7.90
2019-05-06T01:48:48.772Z,7.90
2019-05-06T01:51:17.449Z,8.00
2019-05-06T01:53:46.371Z,8.00
2019-05-06T01:56:14.552Z,7.90
2019-05-06T01:58:46.319Z,7.90
2019-05-06T02:01:14.765Z,7.80
2019-05-06T02:03:48.970Z,7.80
2019-05-06T02:06:16.203Z,7.70
2019-05-06T02:08:47.156Z,7.70
2019-05-06T02:11:15.010Z,7.70
2019-05-06T02:13:54.020Z,7.80
2019-05-06T02:16:21.068Z,7.80
2019-05-06T02:18:48.708Z,7.80
2019-05-06T02:21:24.521Z,7.80
2019-05-06T02:23:58.106Z,7.80
2019-05-06T02:26:26.853Z,7.80
2019-05-06T02:28:56.308Z,7.80
2019-05-06T02:31:54.633Z,7.70
2019-05-06T02:34:27.817Z,7.70
2019-05-06T02:37:11.266Z,7.60
2019-05-06T02:39:38.349Z,7.50
2019-05-06T02:42:06.793Z,7.50
2019-05-06T02:44:35.236Z,7.40
2019-05-06T02:47:14.657Z,7.30
2019-05-06T02:49:45.931Z,7.40
2019-05-06T02:52:14.168Z,7.30
2019-05-06T02:54:42.719Z,7.40
2019-05-06T02:57:13.349Z,7.40
2019-05-06T02:59:43.944Z,7.40
2019-05-06T03:02:14.298Z,7.40
2019-05-06T03:04:43.681Z,7.50
2019-05-06T03:07:14.730Z,7.40
2019-05-06T03:09:44.557Z,7.40
2019-05-06T03:12:13.957Z,7.20
2019-05-06T03:14:48.457Z,7.10
2019-05-06T03:17:17.386Z,7.10
2019-05-06T03:19:46.226Z,7.10
2019-05-06T03:22:43.775Z,6.90
2019-05-06T03:25:17.204Z,6.90
2019-05-06T03:27:46.925Z,6.90
2019-05-06T03:30:25.390Z,6.90
2019-05-06T03:33:28.207Z,6.80
2019-05-06T03:35:36.452Z,6.70
2019-05-06T03:38:09.905Z,6.70
2019-05-06T03:40:42.053Z,6.70
2019-05-06T03:43:07.962Z,6.80
2019-05-06T03:46:04.515Z,6.80
2019-05-06T03:48:37.880Z,6.70
2019-05-06T03:51:06.114Z,6.50
2019-05-06T03:53:34.726Z,6.50
2019-05-06T03:56:03.507Z,6.40
2019-05-06T03:58:34.762Z,6.40
2019-05-06T04:01:05.181Z,6.30
2019-05-06T04:03:45.199Z,6.30
2019-05-06T04:06:04.414Z,6.30
2019-05-06T04:08:34.175Z,6.20
2019-05-06T04:11:03.282Z,6.30
2019-05-06T04:13:33.204Z,6.20
2019-05-06T04:16:13.849Z,6.00
2019-05-06T04:18:53.512Z,6.00
2019-05-06T04:21:33.198Z,6.00
2019-05-06T04:24:28.553Z,6.00
2019-05-06T04:27:25.282Z,6.10
2019-05-06T04:29:54.300Z,6.20
2019-05-06T04:32:24.734Z,6.20
2019-05-06T04:34:53.434Z,6.20
2019-05-06T04:37:24.089Z,6.20
2019-05-06T04:39:53.268Z,6.10
2019-05-06T04:42:19.471Z,6.10
2019-05-06T04:44:48.465Z,6.30
2019-05-06T04:47:15.537Z,6.30
2019-05-06T04:49:43.755Z,6.30
2019-05-06T04:52:13.799Z,6.20
2019-05-06T04:54:40.162Z,6.20
2019-05-06T04:57:08.553Z,6.40
2019-05-06T04:59:35.710Z,6.40
2019-05-06T05:02:02.872Z,6.30
2019-05-06T05:04:32.444Z,6.40
2019-05-06T05:06:59.920Z,6.40
2019-05-06T05:09:32.367Z,6.30
2019-05-06T05:12:08.668Z,6.40
2019-05-06T05:14:51.808Z,6.40
2019-05-06T05:17:38.183Z,6.60
2019-05-06T05:20:06.955Z,6.50
2019-05-06T05:22:34.895Z,6.60
2019-05-06T05:25:03.499Z,6.60
2019-05-06T05:27:32.906Z,6.70
2019-05-06T05:30:01.951Z,6.60
2019-05-06T05:32:32.185Z,6.50
2019-05-06T05:35:02.025Z,6.70
2019-05-06T05:37:32.820Z,6.70
2019-05-06T05:40:02.825Z,6.50
2019-05-06T05:42:49.336Z,6.60
2019-05-06T05:45:16.841Z,6.50
2019-05-06T05:47:44.242Z,6.70
2019-05-06T05:50:24.259Z,6.70
2019-05-06T05:52:55.144Z,6.90
2019-05-06T05:55:57.345Z,7.10
2019-05-06T05:58:25.136Z,7.10
2019-05-06T06:00:53.868Z,7.20
2019-05-06T06:03:22.097Z,7.20
2019-05-06T06:05:49.708Z,7.10
2019-05-06T06:08:22.127Z,7.10
2019-05-06T06:10:56.675Z,7.30
2019-05-06T06:13:23.870Z,7.40
2019-05-06T06:16:08.952Z,7.50
2019-05-06T06:18:57.300Z,7.60
2019-05-06T06:21:36.810Z,7.60
2019-05-06T06:24:19.738Z,7.70
2019-05-06T06:26:47.115Z,7.70
2019-05-06T06:29:14.076Z,7.90
2019-05-06T06:31:49.529Z,7.90
2019-05-06T06:34:39.655Z,7.80
2019-05-06T06:37:44.555Z,7.90
2019-05-06T06:40:13.147Z,7.90
2019-05-06T06:42:42.686Z,8.10
2019-05-06T06:45:12.156Z,8.10
2019-05-06T06:47:43.506Z,8.10
2019-05-06T06:50:12.698Z,8.20
2019-05-06T06:52:43.990Z,8.20
2019-05-06T06:55:12.937Z,8.20
2019-05-06T06:57:53.181Z,8.20
2019-05-06T07:00:44.581Z,8.30
2019-05-06T07:03:16.690Z,8.30
2019-05-06T07:05:53.592Z,8.30
2019-05-06T07:08:34.361Z,8.40
2019-05-06T07:10:52.697Z,8.50
2019-05-06T07:13:20.253Z,8.60
2019-05-06T07:15:48.294Z,8.70
2019-05-06T07:18:15.976Z,8.80
2019-05-06T07:21:07.790Z,8.80
2019-05-06T07:23:36.188Z,8.80
2019-05-06T07:26:06.747Z,8.80
2019-05-06T07:28:33.966Z,8.90
2019-05-06T07:31:14.926Z,8.90
2019-05-06T07:33:29.876Z,9.20
2019-05-06T07:35:57.040Z,9.30
2019-05-06T07:38:25.438Z,9.20
2019-05-06T07:41:04.665Z,9.40
2019-05-06T07:43:48.220Z,9.40
2019-05-06T07:46:23.825Z,9.40
2019-05-06T07:48:51.954Z,9.40
2019-05-06T07:51:18.900Z,9.50
2019-05-06T07:53:48.513Z,9.70
2019-05-06T07:56:15.741Z,9.60
2019-05-06T07:58:43.937Z,9.70
2019-05-06T08:01:13.651Z,9.90
2019-05-06T08:03:42.773Z,10.00
2019-05-06T08:06:13.378Z,10.00
2019-05-06T08:08:43.038Z,9.90
2019-05-06T08:11:13.905Z,10.00
2019-05-06T08:13:43.200Z,10.00
2019-05-06T08:16:13.252Z,10.20
2019-05-06T08:18:42.350Z,10.20
2019-05-06T08:21:18.523Z,10.30
2019-05-06T08:23:47.572Z,10.50
2019-05-06T08:26:17.873Z,10.60
2019-05-06T08:28:45.260Z,10.70
2019-05-06T08:31:16.282Z,10.80
2019-05-06T08:33:43.554Z,10.80
2019-05-06T08:36:15.799Z,10.70
2019-05-06T08:38:56.307Z,10.80
2019-05-06T08:41:23.546Z,10.90
2019-05-06T08:43:52.705Z,11.00
2019-05-06T08:46:24.685Z,11.30
2019-05-06T08:48:52.531Z,11.30
2019-05-06T08:51:28.561Z,11.30
2019-05-06T08:54:03.277Z,11.20
2019-05-06T08:56:32.092Z,11.20
2019-05-06T08:58:59.627Z,11.30
2019-05-06T09:01:34.041Z,11.70
2019-05-06T09:04:09.418Z,11.90
2019-05-06T09:06:34.344Z,12.10
2019-05-06T09:09:02.394Z,12.20
2019-05-06T09:11:32.209Z,12.30
2019-05-06T09:14:03.371Z,12.30
2019-05-06T09:16:29.925Z,12.00
2019-05-06T09:18:56.989Z,11.70
2019-05-06T09:21:24.517Z,11.50
2019-05-06T09:23:53.128Z,11.50
2019-05-06T09:26:24.564Z,11.40
2019-05-06T09:28:58.599Z,11.40
2019-05-06T09:31:34.516Z,11.60
2019-05-06T09:34:09.840Z,11.80
2019-05-06T09:36:44.201Z,11.90
2019-05-06T09:39:08.388Z,12.00
2019-05-06T09:41:35.478Z,12.10
2019-05-06T09:44:03.515Z,12.30
2019-05-06T09:46:32.216Z,12.10
2019-05-06T09:49:22.982Z,12.40
2019-05-06T09:51:50.084Z,13.00
2019-05-06T09:54:26.651Z,14.00
2019-05-06T09:59:52.733Z,14.50
2019-05-06T10:02:19.840Z,14.80
2019-05-06T10:04:47.820Z,15.70
2019-05-06T10:32:48.099Z,12.40
2019-05-06T10:35:16.712Z,12.40
2019-05-06T10:38:14.725Z,12.40
2019-05-06T10:41:02.869Z,12.40
2019-05-06T10:44:03.270Z,12.30
2019-05-06T10:46:31.447Z,12.20
2019-05-06T10:48:58.412Z,12.10
2019-05-06T10:51:35.364Z,12.10
2019-05-06T10:54:03.153Z,12.00
2019-05-06T10:56:56.506Z,12.10
2019-05-06T10:59:33.608Z,12.10
2019-05-06T11:02:16.789Z,12.20
2019-05-06T11:04:43.690Z,12.30
2019-05-06T11:07:28.155Z,12.80
2019-05-06T11:09:42.790Z,13.50
2019-05-06T11:12:12.540Z,14.00
2019-05-06T11:14:41.177Z,14.20
2019-05-06T11:17:08.278Z,14.10
2019-05-06T11:19:37.968Z,14.10
2019-05-06T11:22:05.037Z,14.00
2019-05-06T11:24:36.059Z,13.80
2019-05-06T11:27:03.621Z,13.70
2019-05-06T11:29:37.137Z,13.80
2019-05-06T11:32:23.856Z,13.70
2019-05-06T11:35:04.037Z,13.70
2019-05-06T11:37:47.010Z,14.00
2019-05-06T11:40:08.648Z,14.50
2019-05-06T11:42:37.658Z,14.50
2019-05-06T11:45:05.735Z,14.20
2019-05-06T11:47:37.830Z,14.10
2019-05-06T11:50:07.288Z,14.20
2019-05-06T11:52:35.650Z,14.10
2019-05-06T11:55:03.463Z,14.00
2019-05-06T11:57:32.520Z,13.80
2019-05-06T12:00:04.603Z,13.60
2019-05-06T12:02:32.988Z,13.50
2019-05-06T12:05:02.498Z,13.40
2019-05-06T12:07:29.645Z,13.30
2019-05-06T12:09:59.665Z,13.30
2019-05-06T12:12:26.816Z,13.30
2019-05-06T12:14:53.938Z,13.50
2019-05-06T12:17:22.352Z,13.70
2019-05-06T12:19:49.513Z,14.10
2019-05-06T12:22:22.996Z,14.50
2019-05-06T12:24:52.350Z,15.00
2019-05-06T12:27:39.890Z,15.40
2019-05-06T12:30:07.266Z,15.80
2019-05-06T12:32:43.376Z,16.10
2019-05-06T12:35:12.478Z,16.10
2019-05-06T12:37:43.991Z,16.20
2019-05-06T12:40:12.514Z,16.40
2019-05-06T12:42:47.562Z,16.50
2019-05-06T12:45:37.133Z,16.40
2019-05-06T12:48:08.586Z,16.20
2019-05-06T12:50:35.742Z,15.70
2019-05-06T12:53:04.351Z,15.40
2019-05-06T12:55:33.428Z,15.20
2019-05-06T12:58:04.072Z,15.00
2019-05-06T13:00:32.813Z,14.90
2019-05-06T13:03:02.579Z,15.10
2019-05-06T13:05:31.570Z,15.40
2019-05-06T13:07:59.154Z,15.30
2019-05-06T13:10:27.505Z,15.10
2019-05-06T13:13:05.005Z,15.00
2019-05-06T13:15:32.588Z,15.10
2019-05-06T13:18:06.410Z,15.10
2019-05-06T13:20:34.192Z,15.10
2019-05-06T13:23:09.998Z,15.20
2019-05-06T13:25:36.324Z,15.30
2019-05-06T13:28:07.968Z,15.20
2019-05-06T13:30:36.080Z,15.10
2019-05-06T13:33:28.585Z,15.10
2019-05-06T13:35:55.862Z,15.10
2019-05-06T13:38:22.836Z,15.00
2019-05-06T13:40:54.660Z,14.90
2019-05-06T13:43:37.933Z,14.70
2019-05-06T13:46:13.081Z,14.60
2019-05-06T13:48:57.319Z,14.50
2019-05-06T13:51:32.193Z,14.60
2019-05-06T13:54:02.397Z,14.60
2019-05-06T13:56:33.267Z,14.60
2019-05-06T13:59:01.518Z,14.40
2019-05-06T14:01:45.128Z,14.40
2019-05-06T14:04:13.810Z,14.20
2019-05-06T14:06:43.228Z,14.10
2019-05-06T14:09:28.631Z,14.20
2019-05-06T14:11:42.949Z,14.20
2019-05-06T14:14:13.676Z,14.30
2019-05-06T14:16:42.654Z,14.20
2019-05-06T14:19:14.409Z,14.20
2019-05-06T14:21:43.234Z,14.20
2019-05-06T14:24:16.933Z,14.20
2019-05-06T14:26:57.395Z,14.10
2019-05-06T14:29:38.752Z,14.20
2019-05-06T14:32:05.965Z,14.30
2019-05-06T14:34:34.447Z,14.20
2019-05-06T14:37:02.240Z,14.20
2019-05-06T14:39:49.995Z,14.20
2019-05-06T14:42:04.579Z,14.20
2019-05-06T14:44:36.063Z,14.20
2019-05-06T14:47:38.573Z,14.20
2019-05-06T14:50:06.240Z,14.10
2019-05-06T14:52:36.723Z,14.00
2019-05-06T14:55:17.405Z,13.90
2019-05-06T14:57:44.533Z,13.90
2019-05-06T15:00:15.468Z,13.80
2019-05-06T15:02:42.903Z,13.80
2019-05-06T15:05:13.006Z,13.70
2019-05-06T15:07:41.969Z,13.70
2019-05-06T15:10:20.392Z,13.80
2019-05-06T15:12:42.642Z,13.80
2019-05-06T15:15:29.486Z,14.00
2019-05-06T15:18:02.896Z,14.10
2019-05-06T15:20:30.060Z,14.00
2019-05-06T15:23:04.315Z,13.90
2019-05-06T15:25:32.679Z,14.00
2019-05-06T15:28:02.580Z,14.00
2019-05-06T15:30:40.358Z,13.90
2019-05-06T15:33:09.657Z,13.90
2019-05-06T15:35:55.560Z,13.80
2019-05-06T15:38:26.628Z,13.90
2019-05-06T15:40:53.706Z,13.80
2019-05-06T15:43:23.364Z,13.90
2019-05-06T15:45:52.045Z,13.80
2019-05-06T15:48:24.203Z,13.70
2019-05-06T15:50:53.274Z,13.80
2019-05-06T15:53:26.465Z,14.00
2019-05-06T15:55:53.678Z,14.10
2019-05-06T15:58:24.989Z,14.00
2019-05-06T16:00:53.127Z,14.00
2019-05-06T16:03:25.150Z,13.90
2019-05-06T16:05:54.556Z,13.90
2019-05-06T16:08:24.601Z,13.80
2019-05-06T16:10:58.115Z,13.60
2019-05-06T16:13:24.830Z,13.50
2019-05-06T16:15:53.174Z,13.40
2019-05-06T16:18:20.317Z,13.50
2019-05-06T16:20:48.180Z,13.50
2019-05-06T16:23:24.456Z,13.50
2019-05-06T16:25:52.384Z,13.50
2019-05-06T16:28:22.249Z,13.60
2019-05-06T16:30:50.064Z,13.60
2019-05-06T16:33:18.816Z,13.60
2019-05-06T16:35:49.280Z,13.60
2019-05-06T16:38:16.268Z,13.50
2019-05-06T16:40:45.447Z,13.40
2019-05-06T16:43:15.489Z,13.30
2019-05-06T16:45:42.851Z,13.30
2019-05-06T16:48:12.957Z,13.20
2019-05-06T16:50:42.914Z,13.20
2019-05-06T16:53:12.218Z,13.10
2019-05-06T16:56:13.135Z,13.20
2019-05-06T16:58:47.045Z,13.10
2019-05-06T17:01:15.226Z,13.30
2019-05-06T17:03:48.821Z,13.00
2019-05-06T17:06:23.099Z,13.00
2019-05-06T17:08:53.536Z,13.00
2019-05-06T17:11:28.040Z,12.90
2019-05-06T17:13:54.061Z,12.90
2019-05-06T17:16:22.251Z,12.90
2019-05-06T17:18:56.830Z,12.80
2019-05-06T17:21:23.445Z,12.80
2019-05-06T17:23:55.281Z,12.70
2019-05-06T17:26:22.612Z,12.70
2019-05-06T17:29:05.254Z,12.70
2019-05-06T17:32:07.497Z,12.80
2019-05-06T17:34:38.331Z,12.80
2019-05-06T17:37:13.012Z,12.70
2019-05-06T17:39:42.473Z,12.60
2019-05-06T17:42:09.834Z,12.60
2019-05-06T17:44:37.717Z,12.70
2019-05-06T17:47:16.452Z,12.90
2019-05-06T17:49:43.785Z,12.80
2019-05-06T17:52:17.305Z,12.70
2019-05-06T17:54:44.544Z,12.50
2019-05-06T17:57:14.478Z,12.40
2019-05-06T17:59:43.552Z,12.40
2019-05-06T18:02:19.093Z,12.30
2019-05-06T18:04:46.022Z,12.20
2019-05-06T18:07:15.669Z,12.20
2019-05-06T18:09:42.999Z,12.10
2019-05-06T18:12:20.180Z,12.00
2019-05-06T18:14:48.766Z,12.10
2019-05-06T18:17:27.676Z,12.00
2019-05-06T18:20:03.016Z,12.00
2019-05-06T18:22:32.786Z,12.00
2019-05-06T18:25:03.105Z,12.00
2019-05-06T18:27:32.571Z,11.90
2019-05-06T18:30:14.321Z,11.80
2019-05-06T18:32:33.269Z,11.80
2019-05-06T18:35:03.319Z,12.00
2019-05-06T18:37:33.338Z,12.00
2019-05-06T18:40:03.704Z,11.90
2019-05-06T18:42:32.788Z,11.70
2019-05-06T18:45:04.958Z,11.70
2019-05-06T18:47:33.091Z,11.80
2019-05-06T18:50:03.475Z,11.70
2019-05-06T18:52:32.255Z,11.50
2019-05-06T18:55:05.301Z,11.40
2019-05-06T18:57:33.144Z,11.40
2019-05-06T19:00:05.549Z,11.30
2019-05-06T19:02:34.718Z,11.30
2019-05-06T19:05:17.725Z,11.10
2019-05-06T19:07:47.329Z,11.10
2019-05-06T19:10:27.113Z,11.10
2019-05-06T19:12:54.156Z,11.10
2019-05-06T19:15:25.762Z,11.00
2019-05-06T19:17:52.887Z,11.00
2019-05-06T19:20:21.951Z,10.90
2019-05-06T19:22:50.277Z,10.80
2019-05-06T19:25:18.108Z,10.80
2019-05-06T19:27:49.201Z,10.80
2019-05-06T19:30:16.820Z,10.70
2019-05-06T19:32:47.503Z,10.70
2019-05-06T19:35:14.831Z,10.70
2019-05-06T19:37:41.846Z,10.70
2019-05-06T19:40:12.084Z,10.80
2019-05-06T19:42:53.332Z,10.70
2019-05-06T19:45:22.418Z,10.50
2019-05-06T19:47:52.358Z,10.50
2019-05-06T19:50:23.538Z,10.50
2019-05-06T19:52:52.833Z,10.40
2019-05-06T19:55:20.253Z,10.30
2019-05-06T19:57:53.449Z,10.40
2019-05-06T20:00:22.862Z,10.40
2019-05-06T20:02:53.642Z,10.50
2019-05-06T20:05:31.986Z,10.50
2019-05-06T20:08:23.158Z,10.50
2019-05-06T20:11:19.220Z,10.30
2019-05-06T20:13:46.107Z,10.30
2019-05-06T20:16:13.994Z,10.40
2019-05-06T20:18:42.583Z,10.40
2019-05-06T20:21:13.449Z,10.30
2019-05-06T20:23:42.501Z,10.20
2019-05-06T20:26:14.197Z,10.10
2019-05-06T20:28:47.264Z,10.00
2019-05-06T20:31:16.807Z,10.10
2019-05-06T20:33:43.779Z,10.00
2019-05-06T20:36:15.364Z,10.10
2019-05-06T20:38:42.459Z,10.10
2019-05-06T20:41:09.790Z,9.90
2019-05-06T20:43:37.481Z,9.80
2019-05-06T20:46:04.856Z,9.60
2019-05-06T20:48:36.673Z,9.40
2019-05-06T20:51:03.908Z,9.40
2019-05-06T20:53:32.534Z,9.40
2019-05-06T20:55:59.978Z,9.30
2019-05-06T20:58:26.827Z,9.30
2019-05-06T21:00:58.252Z,9.20
2019-05-06T21:03:25.348Z,9.20
2019-05-06T21:05:52.347Z,9.20
2019-05-06T21:08:21.935Z,9.20
2019-05-06T21:10:49.948Z,9.20
2019-05-06T21:13:29.670Z,9.10
2019-05-06T21:15:49.647Z,9.10
2019-05-06T21:18:23.018Z,9.10
2019-05-06T21:20:50.055Z,8.90
2019-05-06T21:23:22.808Z,8.80
2019-05-06T21:25:52.143Z,8.70
2019-05-06T21:28:20.352Z,8.60
2019-05-06T21:30:47.637Z,8.60
2019-05-06T21:33:14.785Z,8.50
2019-05-06T21:35:43.665Z,8.50
2019-05-06T21:38:12.130Z,8.50
2019-05-06T21:40:43.322Z,8.40
2019-05-06T21:43:10.292Z,8.30
2019-05-06T21:45:46.007Z,8.30
2019-05-06T21:48:13.795Z,8.20
2019-05-06T21:50:44.266Z,8.20
2019-05-06T21:53:14.683Z,8.10
2019-05-06T21:55:44.834Z,8.10
2019-05-06T21:58:12.489Z,8.20
2019-05-06T22:00:46.849Z,8.10
2019-05-06T22:03:14.338Z,8.20
2019-05-06T22:05:45.881Z,8.20
2019-05-06T22:08:13.012Z,8.30
2019-05-06T22:10:44.939Z,8.40
2019-05-06T22:13:14.677Z,8.40
2019-05-06T22:15:45.897Z,8.40
2019-05-06T22:18:13.200Z,8.40
2019-05-06T22:20:58.900Z,8.40
2019-05-06T22:23:48.683Z,8.40
2019-05-06T22:26:16.394Z,8.30
2019-05-06T22:28:47.607Z,8.30
2019-05-06T22:31:14.793Z,8.30
2019-05-06T22:33:42.845Z,8.20
2019-05-06T22:36:13.218Z,8.20
2019-05-06T22:38:41.961Z,8.20
2019-05-06T22:41:11.454Z,8.20
2019-05-06T22:43:38.404Z,8.10
2019-05-06T22:46:09.525Z,8.10
2019-05-06T22:48:36.744Z,8.20
2019-05-06T22:51:03.787Z,8.30
2019-05-06T22:53:32.849Z,8.30
2019-05-06T22:56:02.702Z,8.30
2019-05-06T22:58:32.841Z,8.30
2019-05-06T23:01:04.452Z,8.30
2019-05-06T23:03:34.625Z,8.20
2019-05-06T23:06:02.522Z,8.10
2019-05-06T23:08:32.640Z,8.00
2019-05-06T23:10:59.515Z,8.10
2019-05-06T23:13:26.476Z,7.90
2019-05-06T23:15:55.092Z,7.90
2019-05-06T23:18:22.295Z,7.90
2019-05-06T23:20:54.144Z,7.90
2019-05-06T23:23:22.243Z,8.20
2019-05-06T23:26:09.052Z,8.30
2019-05-06T23:28:38.302Z,8.30
2019-05-06T23:31:05.382Z,8.50
2019-05-06T23:33:36.130Z,8.50
2019-05-06T23:36:03.474Z,8.60
2019-05-06T23:39:07.405Z,8.50
2019-05-06T23:42:12.135Z,8.50
2019-05-06T23:45:18.714Z,8.20
2019-05-06T23:48:22.950Z,8.20
2019-05-06T23:51:26.977Z,8.10
2019-05-06T23:54:32.836Z,8.10
2019-05-06T23:57:02.822Z,8.10
2019-05-06T23:59:32.080Z,8.10
